createdAt,value
2022-08-28T00:00:18.771Z,99272.75
2022-08-28T00:03:05.714Z,99267.13
2022-08-28T00:05:33.911Z,99265.63
2022-08-28T00:08:01.325Z,99262.97
2022-08-28T00:10:28.890Z,99268.00
2022-08-28T00:12:57.638Z,99266.38
2022-08-28T00:15:31.729Z,99272.59
2022-08-28T00:18:00.078Z,99270.97
2022-08-28T00:20:28.498Z,99275.25
2022-08-28T00:22:55.958Z,99270.81
2022-08-28T00:25:25.447Z,99264.31
2022-08-28T00:27:57.554Z,99268.72
2022-08-28T00:30:28.248Z,99263.84
2022-08-28T00:33:06.074Z,99259.59
2022-08-28T00:35:33.538Z,99254.41
2022-08-28T00:38:00.923Z,99250.84
2022-08-28T00:40:33.839Z,99255.00
2022-08-28T00:43:06.025Z,99250.84
2022-08-28T00:45:39.266Z,99249.41
2022-08-28T00:48:07.191Z,99250.69
2022-08-28T00:50:56.756Z,99246.44
2022-08-28T00:53:29.961Z,99246.28
2022-08-28T00:56:04.078Z,99255.44
2022-08-28T00:58:37.348Z,99248.06
2022-08-28T01:01:05.131Z,99246.44
2022-08-28T01:03:32.032Z,99256.16
2022-08-28T01:05:59.393Z,99252.50
2022-08-28T01:08:26.398Z,99247.59
2022-08-28T01:11:01.479Z,99252.19
2022-08-28T01:13:29.604Z,99245.81
2022-08-28T01:15:58.379Z,99241.41
2022-08-28T01:18:30.614Z,99244.34
2022-08-28T01:21:10.168Z,99232.38
2022-08-28T01:23:56.977Z,99227.22
2022-08-28T01:26:28.435Z,99214.38
2022-08-28T01:28:58.419Z,99226.78
2022-08-28T01:31:27.507Z,99226.19
2022-08-28T01:33:55.193Z,99219.06
2022-08-28T01:36:22.276Z,99216.44
2022-08-28T01:38:53.305Z,99213.63
2022-08-28T01:41:23.027Z,99210.09
2022-08-28T01:43:50.028Z,99210.66
2022-08-28T01:46:17.465Z,99211.22
2022-08-28T01:48:44.733Z,99209.59
2022-08-28T01:51:12.995Z,99203.25
2022-08-28T01:53:43.353Z,99202.66
2022-08-28T01:56:16.385Z,99198.38
2022-08-28T01:58:44.172Z,99197.03
2022-08-28T02:01:13.355Z,99201.34
2022-08-28T02:03:45.582Z,99194.13
2022-08-28T02:06:17.973Z,99195.28
2022-08-28T02:08:47.013Z,99183.78
2022-08-28T02:11:19.642Z,99182.88
2022-08-28T02:13:46.722Z,99188.03
2022-08-28T02:16:18.150Z,99176.38
2022-08-28T02:18:45.117Z,99180.34
2022-08-28T02:21:15.199Z,99177.41
2022-08-28T02:23:44.339Z,99178.00
2022-08-28T02:26:12.819Z,99165.28
2022-08-28T02:28:41.272Z,99165.13
2022-08-28T02:31:09.492Z,99164.25
2022-08-28T02:33:41.403Z,99168.09
2022-08-28T02:36:10.793Z,99166.78
2022-08-28T02:38:38.486Z,99161.00
2022-08-28T02:41:06.822Z,99157.63
2022-08-28T02:43:34.731Z,99157.03
2022-08-28T02:46:05.165Z,99156.44
2022-08-28T02:48:34.969Z,99163.38
2022-08-28T02:51:05.923Z,99175.03
2022-08-28T02:53:32.958Z,99166.47
2022-08-28T02:56:01.905Z,99167.81
2022-08-28T02:58:32.904Z,99167.66
2022-08-28T03:01:01.798Z,99175.91
2022-08-28T03:03:33.318Z,99180.16
2022-08-28T03:06:02.042Z,99180.16
2022-08-28T03:08:30.290Z,99174.41
2022-08-28T03:10:57.453Z,99187.72
2022-08-28T03:13:27.109Z,99186.97
2022-08-28T03:15:55.675Z,99188.44
2022-08-28T03:18:25.254Z,99194.19
2022-08-28T03:20:53.517Z,99186.84
2022-08-28T03:23:26.421Z,99186.09
2022-08-28T03:25:54.086Z,99183.44
2022-08-28T03:28:21.193Z,99190.66
2022-08-28T03:30:50.990Z,99193.47
2022-08-28T03:33:19.458Z,99189.22
2022-08-28T03:35:46.580Z,99190.38
2022-08-28T03:38:13.881Z,99186.84
2022-08-28T03:40:45.655Z,99198.50
2022-08-28T03:43:15.236Z,99205.44
2022-08-28T03:45:52.191Z,99201.72
2022-08-28T03:48:21.681Z,99210.16
2022-08-28T03:50:49.043Z,99207.34
2022-08-28T03:53:18.390Z,99209.56
2022-08-28T03:55:45.547Z,99215.91
2022-08-28T03:58:18.787Z,99207.34
2022-08-28T04:00:46.793Z,99208.69
2022-08-28T04:03:14.169Z,99204.97
2022-08-28T04:05:42.337Z,99221.81
2022-08-28T04:08:10.464Z,99216.78
2022-08-28T04:10:38.306Z,99219.75
2022-08-28T04:13:05.230Z,99225.34
2022-08-28T04:15:32.405Z,99228.63
2022-08-28T04:18:00.431Z,99224.78
2022-08-28T04:20:28.364Z,99231.44
2022-08-28T04:22:55.927Z,99228.50
2022-08-28T04:25:23.866Z,99233.25
2022-08-28T04:27:57.504Z,99227.19
2022-08-28T04:30:24.765Z,99237.25
2022-08-28T04:32:51.634Z,99237.56
2022-08-28T04:35:18.666Z,99238.75
2022-08-28T04:37:46.223Z,99254.09
2022-08-28T04:40:14.940Z,99247.31
2022-08-28T04:42:42.591Z,99247.00
2022-08-28T04:45:10.081Z,99242.44
2022-08-28T04:47:38.920Z,99252.94
2022-08-28T04:50:07.586Z,99250.56
2022-08-28T04:52:34.850Z,99249.84
2022-08-28T04:55:01.948Z,99244.94
2022-08-28T04:57:35.712Z,99251.44
2022-08-28T05:00:06.455Z,99255.00
2022-08-28T05:02:33.558Z,99257.81
2022-08-28T05:05:00.548Z,99262.53
2022-08-28T05:07:27.810Z,99264.31
2022-08-28T05:09:57.023Z,99267.09
2022-08-28T05:12:24.145Z,99267.69
2022-08-28T05:14:51.545Z,99263.44
2022-08-28T05:17:20.736Z,99268.59
2022-08-28T05:19:48.335Z,99275.09
2022-08-28T05:22:17.680Z,99272.44
2022-08-28T05:24:44.633Z,99274.03
2022-08-28T05:27:11.687Z,99269.34
2022-08-28T05:29:38.821Z,99270.50
2022-08-28T05:32:09.425Z,99277.16
2022-08-28T05:34:36.428Z,99274.03
2022-08-28T05:37:08.873Z,99277.59
2022-08-28T05:39:36.044Z,99274.47
2022-08-28T05:42:03.117Z,99279.66
2022-08-28T05:44:33.056Z,99281.41
2022-08-28T05:47:00.185Z,99280.84
2022-08-28T05:49:28.489Z,99275.78
2022-08-28T05:51:55.729Z,99279.50
2022-08-28T05:54:22.960Z,99282.84
2022-08-28T05:56:49.931Z,99276.47
2022-08-28T05:59:17.583Z,99280.13
2022-08-28T06:01:50.453Z,99276.69
2022-08-28T06:04:23.111Z,99283.34
2022-08-28T06:06:50.675Z,99278.88
2022-08-28T06:09:28.777Z,99281.78
2022-08-28T06:11:59.116Z,99288.38
2022-08-28T06:14:27.024Z,99290.91
2022-08-28T06:16:55.775Z,99296.31
2022-08-28T06:19:24.884Z,99295.69
2022-08-28T06:21:57.356Z,99297.97
2022-08-28T06:24:26.396Z,99302.13
2022-08-28T06:26:56.542Z,99296.56
2022-08-28T06:29:27.441Z,99304.94
2022-08-28T06:31:57.947Z,99304.19
2022-08-28T06:34:25.833Z,99309.91
2022-08-28T06:36:54.373Z,99308.50
2022-08-28T06:39:24.107Z,99312.63
2022-08-28T06:41:51.269Z,99311.25
2022-08-28T06:44:20.655Z,99313.72
2022-08-28T06:46:49.624Z,99315.59
2022-08-28T06:49:16.743Z,99314.75
2022-08-28T06:51:44.075Z,99317.28
2022-08-28T06:54:11.114Z,99325.91
2022-08-28T06:56:38.984Z,99321.09
2022-08-28T06:59:06.123Z,99326.88
2022-08-28T07:01:35.573Z,99323.09
2022-08-28T07:04:09.910Z,99327.78
2022-08-28T07:06:40.986Z,99327.28
2022-08-28T07:09:11.431Z,99333.06
2022-08-28T07:11:39.733Z,99337.75
2022-08-28T07:14:07.543Z,99338.88
2022-08-28T07:16:38.609Z,99330.25
2022-08-28T07:19:13.198Z,99339.13
2022-08-28T07:21:43.701Z,99351.75
2022-08-28T07:24:13.432Z,99345.88
2022-08-28T07:26:41.913Z,99352.38
2022-08-28T07:29:09.936Z,99353.00
2022-08-28T07:31:41.518Z,99359.16
2022-08-28T07:34:10.548Z,99362.34
2022-08-28T07:36:38.976Z,99355.81
2022-08-28T07:39:07.775Z,99364.03
2022-08-28T07:41:39.347Z,99365.88
2022-08-28T07:44:26.867Z,99377.06
2022-08-28T07:46:56.181Z,99381.25
2022-08-28T07:49:31.453Z,99375.94
2022-08-28T07:52:01.657Z,99380.84
2022-08-28T07:54:28.606Z,99376.69
2022-08-28T07:56:55.644Z,99388.69
2022-08-28T07:59:23.148Z,99385.03
2022-08-28T08:01:52.435Z,99391.16
2022-08-28T08:04:21.678Z,99387.69
2022-08-28T08:06:54.388Z,99393.38
2022-08-28T08:09:28.532Z,99394.66
2022-08-28T08:11:57.837Z,99388.69
2022-08-28T08:14:28.689Z,99388.38
2022-08-28T08:16:56.099Z,99387.38
2022-08-28T08:19:23.791Z,99397.50
2022-08-28T08:21:55.086Z,99387.44
2022-08-28T08:24:26.807Z,99399.16
2022-08-28T08:27:00.622Z,99399.03
2022-08-28T08:29:35.824Z,99404.34
2022-08-28T08:32:08.108Z,99408.63
2022-08-28T08:34:41.567Z,99409.34
2022-08-28T08:37:09.451Z,99418.03
2022-08-28T08:39:38.203Z,99421.69
2022-08-28T08:42:10.638Z,99429.16
2022-08-28T08:44:44.002Z,99428.06
2022-08-28T08:47:30.878Z,99430.25
2022-08-28T08:50:07.261Z,99424.63
2022-08-28T08:52:43.364Z,99436.13
2022-08-28T08:55:14.977Z,99446.34
2022-08-28T08:57:46.195Z,99439.69
2022-08-28T09:00:18.697Z,99445.25
2022-08-28T09:02:55.950Z,99449.56
2022-08-28T09:05:50.908Z,99454.97
2022-08-28T09:08:49.743Z,99448.94
2022-08-28T09:11:57.287Z,99450.72
2022-08-28T09:15:08.998Z,99447.47
2022-08-28T09:18:08.492Z,99453.22
2022-08-28T09:20:35.583Z,99459.28
2022-08-28T09:23:12.724Z,99450.31
2022-08-28T09:25:53.243Z,99460.53
2022-08-28T09:28:26.121Z,99458.84
2022-08-28T09:31:04.390Z,99466.38
2022-08-28T09:33:37.426Z,99458.34
2022-08-28T09:36:35.172Z,99462.41
2022-08-28T09:39:29.337Z,99463.53
2022-08-28T09:42:39.901Z,99457.41
2022-08-28T09:45:14.045Z,99465.38
2022-08-28T09:47:47.089Z,99460.19
2022-08-28T09:50:22.694Z,99475.06
2022-08-28T09:52:51.648Z,99471.13
2022-08-28T09:55:27.658Z,99476.81
2022-08-28T09:57:54.912Z,99470.50
2022-08-28T10:00:23.011Z,99470.84
2022-08-28T10:03:08.555Z,99463.47
2022-08-28T10:05:40.027Z,99463.69
2022-08-28T10:08:45.585Z,99455.88
2022-08-28T10:11:25.867Z,99456.00
2022-08-28T10:14:38.291Z,99447.09
2022-08-28T10:17:31.594Z,99451.25
2022-08-28T10:20:07.804Z,99447.50
2022-08-28T10:22:49.833Z,99447.50
2022-08-28T10:25:43.461Z,99444.59
2022-08-28T10:28:46.800Z,99440.81
2022-08-28T10:31:56.733Z,99444.38
2022-08-28T10:34:34.567Z,99456.78
2022-08-28T10:37:08.005Z,99448.31
2022-08-28T10:39:59.065Z,99447.31
2022-08-28T10:42:38.561Z,99438.13
2022-08-28T10:45:17.756Z,99436.78
2022-08-28T10:47:52.259Z,99435.41
2022-08-28T10:50:23.797Z,99430.66
2022-08-28T10:53:03.405Z,99432.88
2022-08-28T10:55:43.969Z,99433.22
2022-08-28T10:58:21.524Z,99431.91
2022-08-28T11:01:02.533Z,99431.38
2022-08-28T11:03:37.930Z,99428.66
2022-08-28T11:06:14.427Z,99432.53
2022-08-28T11:08:42.233Z,99431.25
2022-08-28T11:11:17.653Z,99431.38
2022-08-28T11:13:54.587Z,99433.22
2022-08-28T11:16:28.268Z,99432.00
2022-08-28T11:19:15.848Z,99427.75
2022-08-28T11:21:59.881Z,99442.91
2022-08-28T11:25:02.427Z,99439.66
2022-08-28T11:27:37.717Z,99439.34
2022-08-28T11:30:11.824Z,99443.25
2022-08-28T11:32:39.064Z,99445.03
2022-08-28T11:35:37.759Z,99446.59
2022-08-28T11:38:05.626Z,99451.63
2022-08-28T11:40:32.745Z,99447.97
2022-08-28T11:43:16.534Z,99448.06
2022-08-28T11:45:48.154Z,99455.31
2022-08-28T11:48:34.056Z,99454.97
2022-08-28T11:51:07.143Z,99459.59
2022-08-28T11:53:53.950Z,99459.63
2022-08-28T11:56:41.170Z,99466.41
2022-08-28T11:59:39.191Z,99451.84
2022-08-28T12:02:40.987Z,99450.81
2022-08-28T12:05:17.221Z,99444.19
2022-08-28T12:07:51.028Z,99453.28
2022-08-28T12:10:27.871Z,99461.78
2022-08-28T12:12:57.903Z,99459.09
2022-08-28T12:15:27.963Z,99463.91
2022-08-28T12:18:11.897Z,99457.81
2022-08-28T12:20:51.295Z,99463.91
2022-08-28T12:23:25.758Z,99461.91
2022-08-28T12:26:05.713Z,99467.78
2022-08-28T12:28:56.093Z,99455.91
2022-08-28T12:31:53.911Z,99463.47
2022-08-28T12:34:26.902Z,99467.56
2022-08-28T12:37:05.649Z,99460.75
2022-08-28T12:39:34.258Z,99456.03
2022-08-28T12:42:03.924Z,99457.19
2022-08-28T12:44:33.886Z,99453.59
2022-08-28T12:47:01.399Z,99457.41
2022-08-28T12:49:37.973Z,99450.03
2022-08-28T12:52:16.957Z,99438.59
2022-08-28T12:54:49.622Z,99438.00
2022-08-28T12:57:27.376Z,99450.91
2022-08-28T13:00:06.645Z,99442.19
2022-08-28T13:02:34.747Z,99440.50
2022-08-28T13:05:06.421Z,99433.78
2022-08-28T13:08:02.005Z,99428.06
2022-08-28T13:10:29.899Z,99418.41
2022-08-28T13:13:10.743Z,99428.50
2022-08-28T13:15:55.415Z,99424.16
2022-08-28T13:18:44.878Z,99419.09
2022-08-28T13:21:32.943Z,99416.72
2022-08-28T13:24:21.820Z,99412.13
2022-08-28T13:27:12.228Z,99415.50
2022-08-28T13:30:16.720Z,99422.84
2022-08-28T13:32:56.336Z,99419.66
2022-08-28T13:35:23.640Z,99418.09
2022-08-28T13:37:54.152Z,99417.00
2022-08-28T13:40:55.896Z,99417.09
2022-08-28T13:43:11.939Z,99420.28
2022-08-28T13:45:44.357Z,99420.53
2022-08-28T13:48:18.664Z,99425.47
2022-08-28T13:50:51.571Z,99422.28
2022-08-28T13:53:20.368Z,99419.00
2022-08-28T13:55:51.026Z,99413.31
2022-08-28T13:58:18.438Z,99430.13
2022-08-28T14:00:48.515Z,99428.50
2022-08-28T14:03:34.704Z,99431.13
2022-08-28T14:06:03.910Z,99439.00
2022-08-28T14:08:31.161Z,99439.06
2022-08-28T14:10:58.918Z,99434.19
2022-08-28T14:13:27.824Z,99430.59
2022-08-28T14:15:58.561Z,99434.28
2022-08-28T14:18:28.469Z,99423.03
2022-08-28T14:20:55.729Z,99424.97
2022-08-28T14:23:23.177Z,99429.97
2022-08-28T14:25:50.951Z,99427.34
2022-08-28T14:28:21.288Z,99429.56
2022-08-28T14:30:50.759Z,99423.16
2022-08-28T14:33:20.778Z,99432.31
2022-08-28T14:35:49.494Z,99424.22
2022-08-28T14:38:17.272Z,99429.97
2022-08-28T14:40:45.689Z,99428.28
2022-08-28T14:43:14.993Z,99428.38
2022-08-28T14:45:47.445Z,99429.44
2022-08-28T14:48:17.329Z,99429.88
2022-08-28T14:50:47.755Z,99425.97
2022-08-28T14:53:16.086Z,99423.34
2022-08-28T14:55:45.548Z,99429.97
2022-08-28T14:58:13.552Z,99437.31
2022-08-28T15:00:46.217Z,99423.47
2022-08-28T15:03:16.924Z,99432.28
2022-08-28T15:05:45.117Z,99440.91
2022-08-28T15:08:17.558Z,99442.38
2022-08-28T15:10:45.058Z,99440.03
2022-08-28T15:13:12.988Z,99429.97
2022-08-28T15:15:44.941Z,99438.66
2022-08-28T15:18:12.596Z,99438.88
2022-08-28T15:20:45.267Z,99440.56
2022-08-28T15:23:14.682Z,99447.94
2022-08-28T15:25:42.672Z,99447.56
2022-08-28T15:28:10.024Z,99449.97
2022-08-28T15:30:38.373Z,99443.03
2022-08-28T15:33:06.798Z,99452.91
2022-08-28T15:35:35.682Z,99454.16
2022-08-28T15:38:03.626Z,99460.31
2022-08-28T15:40:49.948Z,99457.22
2022-08-28T15:43:17.438Z,99456.13
2022-08-28T15:45:45.017Z,99452.91
2022-08-28T15:48:13.352Z,99450.06
2022-08-28T15:50:41.949Z,99457.34
2022-08-28T15:53:12.435Z,99448.34
2022-08-28T15:55:39.969Z,99459.16
2022-08-28T15:58:14.126Z,99462.09
2022-08-28T16:00:42.271Z,99462.88
2022-08-28T16:03:12.332Z,99457.97
2022-08-28T16:05:40.877Z,99474.06
2022-08-28T16:08:10.480Z,99477.56
2022-08-28T16:10:38.361Z,99470.44
2022-08-28T16:13:06.795Z,99473.59
2022-08-28T16:15:34.451Z,99483.03
2022-08-28T16:18:02.133Z,99485.03
2022-08-28T16:20:29.218Z,99486.91
2022-08-28T16:22:56.335Z,99495.66
2022-08-28T16:25:23.545Z,99484.28
2022-08-28T16:27:50.965Z,99488.78
2022-08-28T16:30:18.643Z,99491.34
2022-08-28T16:32:50.724Z,99488.13
2022-08-28T16:35:18.671Z,99486.59
2022-08-28T16:37:48.388Z,99480.25
2022-08-28T16:40:15.753Z,99487.47
2022-08-28T16:42:51.965Z,99476.97
2022-08-28T16:45:19.697Z,99479.34
2022-08-28T16:47:50.007Z,99481.47
2022-08-28T16:50:17.680Z,99479.56
2022-08-28T16:52:46.699Z,99480.63
2022-08-28T16:55:16.482Z,99471.16
2022-08-28T16:57:44.150Z,99478.25
2022-08-28T17:00:13.595Z,99476.47
2022-08-28T17:02:42.369Z,99472.03
2022-08-28T17:05:12.269Z,99481.38
2022-08-28T17:07:39.942Z,99476.34
2022-08-28T17:10:12.167Z,99489.56
2022-08-28T17:12:41.923Z,99481.69
2022-08-28T17:15:11.411Z,99489.25
2022-08-28T17:17:39.061Z,99492.22
2022-08-28T17:20:07.915Z,99499.78
2022-08-28T17:22:37.326Z,99503.75
2022-08-28T17:25:13.914Z,99500.50
2022-08-28T17:27:41.636Z,99506.84
2022-08-28T17:30:10.059Z,99508.50
2022-08-28T17:32:37.401Z,99508.50
2022-08-28T17:35:05.644Z,99513.69
2022-08-28T17:37:36.558Z,99512.19
2022-08-28T17:40:13.978Z,99510.56
2022-08-28T17:42:46.303Z,99511.75
2022-08-28T17:45:17.621Z,99518.53
2022-08-28T17:47:44.929Z,99519.44
2022-08-28T17:50:12.793Z,99522.69
2022-08-28T17:52:40.687Z,99523.88
2022-08-28T17:55:08.378Z,99525.19
2022-08-28T17:57:35.911Z,99526.69
2022-08-28T18:00:07.204Z,99525.78
2022-08-28T18:02:42.290Z,99528.28
2022-08-28T18:05:12.320Z,99531.69
2022-08-28T18:07:41.976Z,99531.41
2022-08-28T18:10:12.039Z,99537.63
2022-08-28T18:12:41.288Z,99535.78
2022-08-28T18:15:13.210Z,99535.06
2022-08-28T18:17:42.252Z,99551.59
2022-08-28T18:20:11.921Z,99544.34
2022-08-28T18:22:39.363Z,99548.31
2022-08-28T18:25:29.814Z,99555.13
2022-08-28T18:27:59.704Z,99552.91
2022-08-28T18:30:27.705Z,99553.91
2022-08-28T18:32:58.545Z,99551.53
2022-08-28T18:35:31.830Z,99566.78
2022-08-28T18:38:00.410Z,99573.53
2022-08-28T18:40:28.430Z,99579.03
2022-08-28T18:42:56.180Z,99578.88
2022-08-28T18:45:23.845Z,99583.31
2022-08-28T18:47:51.515Z,99589.94
2022-08-28T18:50:22.453Z,99590.34
2022-08-28T18:52:52.008Z,99598.19
2022-08-28T18:55:21.545Z,99602.34
2022-08-28T18:57:51.452Z,99600.84
2022-08-28T19:00:21.278Z,99603.97
2022-08-28T19:02:49.785Z,99602.47
2022-08-28T19:05:21.859Z,99612.41
2022-08-28T19:07:49.950Z,99617.84
2022-08-28T19:10:32.853Z,99619.63
2022-08-28T19:13:02.352Z,99624.06
2022-08-28T19:15:31.129Z,99626.44
2022-08-28T19:18:01.109Z,99632.06
2022-08-28T19:20:29.698Z,99621.16
2022-08-28T19:22:58.426Z,99623.97
2022-08-28T19:25:29.508Z,99621.28
2022-08-28T19:28:02.290Z,99628.56
2022-08-28T19:30:35.387Z,99621.78
2022-08-28T19:33:04.662Z,99626.97
2022-08-28T19:35:34.065Z,99624.47
2022-08-28T19:38:01.966Z,99627.84
2022-08-28T19:40:29.696Z,99632.16
2022-08-28T19:42:58.215Z,99629.19
2022-08-28T19:45:28.634Z,99628.59
2022-08-28T19:47:59.930Z,99632.16
2022-08-28T19:50:30.106Z,99636.44
2022-08-28T19:52:57.995Z,99646.94
2022-08-28T19:55:28.061Z,99642.38
2022-08-28T19:57:57.076Z,99644.28
2022-08-28T20:00:29.911Z,99651.81
2022-08-28T20:02:58.100Z,99653.28
2022-08-28T20:05:26.412Z,99655.38
2022-08-28T20:07:53.997Z,99665.88
2022-08-28T20:10:22.119Z,99672.78
2022-08-28T20:12:49.503Z,99667.75
2022-08-28T20:15:19.387Z,99671.16
2022-08-28T20:17:49.776Z,99670.44
2022-08-28T20:20:20.166Z,99674.72
2022-08-28T20:22:49.329Z,99682.97
2022-08-28T20:25:22.286Z,99682.22
2022-08-28T20:27:50.971Z,99687.84
2022-08-28T20:30:18.437Z,99682.09
2022-08-28T20:32:48.548Z,99686.38
2022-08-28T20:35:17.348Z,99683.09
2022-08-28T20:37:49.326Z,99676.00
2022-08-28T20:40:22.015Z,99682.34
2022-08-28T20:42:50.199Z,99671.13
2022-08-28T20:45:18.858Z,99686.47
2022-08-28T20:47:46.632Z,99685.16
2022-08-28T20:50:15.639Z,99679.81
2022-08-28T20:52:43.730Z,99689.53
2022-08-28T20:55:13.116Z,99687.16
2022-08-28T20:57:40.773Z,99691.88
2022-08-28T21:00:10.830Z,99698.81
2022-08-28T21:02:38.583Z,99692.88
2022-08-28T21:05:09.890Z,99698.34
2022-08-28T21:07:37.148Z,99692.38
2022-08-28T21:10:07.946Z,99695.94
2022-08-28T21:12:40.502Z,99692.09
2022-08-28T21:15:11.053Z,99686.47
2022-08-28T21:17:40.129Z,99689.69
2022-08-28T21:20:14.214Z,99688.03
2022-08-28T21:22:42.093Z,99684.34
2022-08-28T21:25:11.206Z,99682.84
2022-08-28T21:27:39.542Z,99682.09
2022-08-28T21:30:11.658Z,99687.88
2022-08-28T21:32:42.174Z,99685.81
2022-08-28T21:35:12.044Z,99687.44
2022-08-28T21:37:42.410Z,99688.94
2022-08-28T21:40:12.655Z,99697.38
2022-08-28T21:42:41.670Z,99688.38
2022-08-28T21:45:12.000Z,99700.66
2022-08-28T21:47:42.496Z,99696.53
2022-08-28T21:50:10.988Z,99702.44
2022-08-28T21:52:40.081Z,99693.88
2022-08-28T21:55:11.472Z,99694.63
2022-08-28T21:57:41.188Z,99690.50
2022-08-28T22:00:19.772Z,99686.53
2022-08-28T22:02:48.189Z,99687.28
2022-08-28T22:05:16.538Z,99691.56
2022-08-28T22:07:45.337Z,99697.50
2022-08-28T22:10:12.854Z,99693.78
2022-08-28T22:12:42.332Z,99693.06
2022-08-28T22:15:09.827Z,99695.69
2022-08-28T22:17:37.368Z,99696.00
2022-08-28T22:20:05.130Z,99698.50
2022-08-28T22:22:50.839Z,99703.19
2022-08-28T22:25:18.708Z,99703.63
2022-08-28T22:27:46.280Z,99695.38
2022-08-28T22:30:13.611Z,99704.72
2022-08-28T22:32:46.258Z,99703.94
2022-08-28T22:35:13.405Z,99705.44
2022-08-28T22:37:40.515Z,99707.09
2022-08-28T22:40:09.533Z,99712.72
2022-08-28T22:42:40.640Z,99707.66
2022-08-28T22:45:08.470Z,99719.22
2022-08-28T22:47:36.449Z,99715.53
2022-08-28T22:50:04.854Z,99715.81
2022-08-28T22:52:32.656Z,99714.34
2022-08-28T22:54:59.890Z,99708.72
2022-08-28T22:57:29.621Z,99709.47
2022-08-28T23:00:01.589Z,99713.25
2022-08-28T23:02:29.008Z,99711.22
2022-08-28T23:04:56.363Z,99709.56
2022-08-28T23:07:23.616Z,99709.16
2022-08-28T23:09:51.363Z,99712.72
2022-08-28T23:12:18.447Z,99709.56
2022-08-28T23:14:48.649Z,99709.41
2022-08-28T23:17:21.090Z,99708.53
2022-08-28T23:19:48.557Z,99702.56
2022-08-28T23:22:18.156Z,99702.41
2022-08-28T23:24:47.219Z,99701.06
2022-08-28T23:27:35.257Z,99694.72
2022-08-28T23:30:06.241Z,99701.81
2022-08-28T23:32:35.599Z,99702.97
2022-08-28T23:35:07.006Z,99704.22
2022-08-28T23:37:36.779Z,99704.38
2022-08-28T23:40:08.555Z,99713.38
2022-08-28T23:42:36.462Z,99704.78
2022-08-28T23:45:05.168Z,99711.88
2022-08-28T23:47:32.497Z,99713.03
2022-08-28T23:50:02.726Z,99708.19
2022-08-28T23:52:32.198Z,99708.19
2022-08-28T23:55:02.561Z,99703.31
2022-08-28T23:57:31.174Z,99708.78
